createdAt,value
2023-04-02T00:01:26.797Z,24.60
2023-04-02T00:04:26.359Z,24.50
2023-04-02T00:07:30.713Z,23.10
2023-04-02T00:10:06.137Z,23.40
2023-04-02T00:13:07.559Z,26.90
2023-04-02T00:15:59.588Z,22.70
2023-04-02T00:18:41.728Z,23.40
2023-04-02T00:21:38.744Z,24.50
2023-04-02T00:24:31.533Z,20.90
2023-04-02T00:27:15.740Z,21.60
2023-04-02T00:30:00.145Z,22.90
2023-04-02T00:32:40.342Z,22.30
2023-04-02T00:35:34.310Z,21.00
2023-04-02T00:38:13.216Z,20.90
2023-04-02T00:41:00.232Z,18.50
2023-04-02T00:43:54.526Z,21.40
2023-04-02T00:46:49.681Z,21.00
2023-04-02T00:49:36.907Z,19.80
2023-04-02T00:52:32.262Z,19.00
2023-04-02T00:55:13.625Z,22.30
2023-04-02T00:57:54.025Z,19.80
2023-04-02T01:00:34.622Z,18.90
2023-04-02T01:03:38.854Z,18.80
2023-04-02T01:06:17.228Z,21.70
2023-04-02T01:09:10.584Z,20.80
2023-04-02T01:12:34.714Z,19.10
2023-04-02T01:15:31.219Z,20.70
2023-04-02T01:18:31.433Z,23.20
2023-04-02T01:21:23.669Z,23.40
2023-04-02T01:24:16.450Z,20.60
2023-04-02T01:27:16.206Z,20.90
2023-04-02T01:29:59.720Z,21.80
2023-04-02T01:32:51.958Z,23.70
2023-04-02T01:35:47.250Z,21.90
2023-04-02T01:38:27.283Z,24.90
2023-04-02T01:41:27.952Z,22.00
2023-04-02T01:44:26.371Z,22.50
2023-04-02T01:47:20.973Z,17.10
2023-04-02T01:50:31.444Z,24.10
2023-04-02T01:53:06.442Z,18.30
2023-04-02T01:56:01.095Z,20.70
2023-04-02T01:58:53.305Z,19.30
2023-04-02T02:01:51.853Z,20.90
2023-04-02T02:04:44.131Z,16.40
2023-04-02T02:07:36.166Z,21.50
2023-04-02T02:10:30.456Z,18.80
2023-04-02T02:13:05.382Z,16.90
2023-04-02T02:16:00.288Z,18.10
2023-04-02T02:18:54.971Z,18.70
2023-04-02T02:21:42.690Z,14.90
2023-04-02T02:24:37.240Z,20.70
2023-04-02T02:27:46.370Z,16.80
2023-04-02T02:30:41.399Z,14.50
2023-04-02T02:33:38.217Z,17.30
2023-04-02T02:36:35.002Z,14.40
2023-04-02T02:39:34.270Z,15.60
2023-04-02T02:42:19.993Z,20.20
2023-04-02T02:45:17.186Z,15.60
2023-04-02T02:48:00.114Z,19.30
2023-04-02T02:50:38.084Z,16.50
2023-04-02T02:53:20.919Z,16.10
2023-04-02T02:56:13.652Z,16.40
2023-04-02T02:59:09.330Z,16.30
2023-04-02T03:02:02.402Z,16.00
2023-04-02T03:04:51.235Z,16.00
2023-04-02T03:07:43.271Z,14.50
2023-04-02T03:10:24.531Z,19.60
2023-04-02T03:13:23.925Z,14.90
2023-04-02T03:16:08.648Z,18.40
2023-04-02T03:22:03.112Z,21.10
2023-04-02T03:25:03.014Z,25.30
2023-04-02T03:28:01.832Z,18.00
2023-04-02T03:30:43.669Z,17.90
2023-04-02T03:33:29.151Z,15.80
2023-04-02T03:36:28.529Z,18.00
2023-04-02T03:39:19.658Z,17.50
2023-04-02T03:42:04.119Z,17.40
2023-04-02T03:45:00.014Z,14.60
2023-04-02T03:47:38.195Z,18.20
2023-04-02T03:50:20.412Z,18.70
2023-04-02T03:53:13.675Z,17.40
2023-04-02T03:56:07.741Z,18.30
2023-04-02T03:58:51.043Z,16.50
2023-04-02T04:01:49.061Z,17.30
2023-04-02T04:04:43.021Z,16.80
2023-04-02T04:07:28.996Z,18.90
2023-04-02T04:10:25.381Z,18.70
2023-04-02T04:13:24.293Z,18.10
2023-04-02T04:16:09.666Z,22.40
2023-04-02T04:19:06.600Z,17.70
2023-04-02T04:21:38.534Z,20.00
2023-04-02T04:24:23.924Z,18.10
2023-04-02T04:27:24.519Z,22.00
2023-04-02T04:30:24.399Z,21.20
2023-04-02T04:33:23.380Z,21.70
2023-04-02T04:36:28.564Z,22.30
2023-04-02T04:39:29.653Z,25.80
2023-04-02T04:42:25.222Z,21.10
2023-04-02T04:45:07.703Z,18.30
2023-04-02T04:48:04.395Z,14.10
2023-04-02T04:51:00.607Z,12.10
2023-04-02T04:53:55.119Z,10.10
2023-04-02T04:56:52.612Z,9.50
2023-04-02T04:59:48.850Z,9.60
2023-04-02T05:02:28.840Z,8.90
2023-04-02T05:05:22.806Z,10.60
2023-04-02T05:08:20.366Z,11.40
2023-04-02T05:11:03.022Z,12.00
2023-04-02T05:13:59.651Z,8.60
2023-04-02T05:16:41.768Z,7.80
2023-04-02T05:19:36.917Z,8.10
2023-04-02T05:22:26.027Z,9.50
2023-04-02T05:25:24.333Z,8.00
2023-04-02T05:28:21.330Z,9.70
2023-04-02T05:31:17.538Z,6.50
2023-04-02T05:34:11.617Z,7.10
2023-04-02T05:37:06.491Z,7.70
2023-04-02T05:39:51.296Z,5.40
2023-04-02T05:42:49.308Z,6.60
2023-04-02T05:45:29.592Z,7.30
2023-04-02T05:48:18.525Z,5.90
2023-04-02T05:51:16.813Z,7.00
2023-04-02T05:56:55.132Z,5.30
2023-04-02T05:59:52.725Z,3.60
2023-04-02T06:02:54.873Z,3.90
2023-04-02T06:05:48.054Z,3.20
2023-04-02T06:08:45.142Z,4.20
2023-04-02T06:11:45.397Z,3.10
2023-04-02T06:14:37.420Z,2.90
2023-04-02T06:17:30.062Z,2.10
2023-04-02T06:20:23.065Z,3.00
2023-04-02T06:23:19.615Z,1.50
2023-04-02T06:26:17.780Z,1.60
2023-04-02T06:28:56.022Z,2.10
2023-04-02T06:31:51.700Z,2.00
2023-04-02T06:34:30.780Z,1.60
2023-04-02T06:37:28.997Z,2.30
2023-04-02T06:40:40.444Z,1.90
2023-04-02T06:43:20.323Z,1.20
2023-04-02T06:45:58.636Z,1.10
2023-04-02T06:48:42.751Z,1.20
2023-04-02T06:51:37.635Z,1.50
2023-04-02T06:54:29.734Z,1.50
2023-04-02T06:57:21.898Z,1.20
2023-04-02T07:00:26.467Z,1.80
2023-04-02T07:03:22.598Z,1.80
2023-04-02T07:05:54.668Z,2.00
2023-04-02T07:08:26.748Z,2.00
2023-04-02T07:11:21.183Z,1.40
2023-04-02T07:16:47.018Z,1.20
2023-04-02T07:19:39.086Z,2.10
2023-04-02T07:22:31.287Z,1.40
2023-04-02T07:25:23.407Z,1.50
2023-04-02T07:27:58.879Z,1.90
2023-04-02T07:30:51.369Z,2.40
2023-04-02T07:33:28.321Z,4.00
2023-04-02T07:36:22.493Z,3.00
2023-04-02T07:39:14.540Z,1.90
2023-04-02T07:41:57.579Z,1.80
2023-04-02T07:44:49.612Z,1.60
2023-04-02T07:47:42.622Z,1.80
2023-04-02T07:50:35.037Z,2.00
2023-04-02T07:53:31.900Z,2.30
2023-04-02T07:56:25.792Z,3.30
2023-04-02T07:59:17.833Z,2.00
2023-04-02T08:02:15.869Z,2.90
2023-04-02T08:05:09.078Z,2.80
2023-04-02T08:07:43.483Z,5.30
2023-04-02T08:10:35.490Z,3.60
2023-04-02T08:13:27.593Z,3.10
2023-04-02T08:16:19.768Z,2.20
2023-04-02T08:19:11.832Z,3.70
2023-04-02T08:22:04.103Z,2.20
2023-04-02T08:24:56.389Z,1.70
2023-04-02T08:27:51.189Z,1.00
2023-04-02T08:30:43.402Z,1.20
2023-04-02T08:33:35.762Z,1.00
2023-04-02T08:36:31.870Z,2.10
2023-04-02T08:39:24.166Z,1.00
2023-04-02T08:42:06.062Z,1.60
2023-04-02T08:45:24.352Z,1.50
2023-04-02T08:48:18.390Z,2.00
2023-04-02T08:51:21.059Z,2.10
2023-04-02T08:54:29.058Z,2.90
2023-04-02T08:57:32.609Z,2.70
2023-04-02T09:00:34.116Z,2.50
2023-04-02T09:03:31.955Z,2.40
2023-04-02T09:06:26.112Z,3.70
2023-04-02T09:09:19.859Z,3.20
2023-04-02T09:12:17.358Z,5.10
2023-04-02T09:15:24.711Z,3.60
2023-04-02T09:18:18.381Z,3.40
2023-04-02T09:21:28.269Z,4.90
2023-04-02T09:24:20.392Z,3.60
2023-04-02T09:27:21.582Z,3.70
2023-04-02T09:30:42.845Z,2.70
2023-04-02T09:33:48.345Z,2.80
2023-04-02T09:36:41.059Z,4.10
2023-04-02T09:39:33.673Z,2.60
2023-04-02T09:42:36.397Z,4.00
2023-04-02T09:45:32.568Z,4.70
2023-04-02T09:48:30.663Z,4.10
2023-04-02T09:51:25.119Z,4.80
2023-04-02T09:54:19.394Z,5.60
2023-04-02T09:57:24.237Z,6.40
2023-04-02T10:00:32.117Z,2.80
2023-04-02T10:03:28.514Z,5.80
2023-04-02T10:06:22.057Z,4.50
2023-04-02T10:09:32.497Z,5.20
2023-04-02T10:12:25.988Z,6.60
2023-04-02T10:15:22.638Z,6.70
2023-04-02T10:18:22.279Z,6.70
2023-04-02T10:21:17.988Z,6.20
2023-04-02T10:27:17.418Z,5.80
2023-04-02T10:30:24.983Z,5.80
2023-04-02T10:33:01.374Z,5.40
2023-04-02T10:35:58.491Z,6.60
2023-04-02T10:38:45.416Z,4.60
2023-04-02T10:41:29.713Z,5.00
2023-04-02T10:44:20.774Z,4.50
2023-04-02T10:47:31.048Z,2.10
2023-04-02T10:50:32.422Z,4.00
2023-04-02T10:53:34.901Z,3.60
2023-04-02T10:56:28.631Z,5.10
2023-04-02T10:59:27.793Z,5.90
2023-04-02T11:02:31.857Z,6.00
2023-04-02T11:05:36.659Z,3.70
2023-04-02T11:08:32.590Z,4.50
2023-04-02T11:14:18.683Z,6.40
2023-04-02T11:17:16.703Z,3.70
2023-04-02T11:20:40.646Z,5.80
2023-04-02T11:23:36.187Z,14.70
2023-04-02T11:26:47.307Z,14.90
2023-04-02T11:29:41.532Z,7.40
2023-04-02T11:32:43.620Z,7.80
2023-04-02T11:35:42.140Z,21.70
2023-04-02T11:38:54.947Z,13.30
2023-04-02T11:42:03.416Z,9.90
2023-04-02T11:44:56.198Z,9.60
2023-04-02T11:48:28.990Z,6.70
2023-04-02T11:51:56.525Z,8.60
2023-04-02T11:55:24.962Z,7.30
2023-04-02T11:58:39.623Z,6.70
2023-04-02T12:01:56.728Z,10.50
2023-04-02T12:05:22.992Z,8.40
2023-04-02T12:08:30.451Z,7.00
2023-04-02T12:11:12.200Z,12.20
2023-04-02T12:13:58.537Z,8.20
2023-04-02T12:16:52.387Z,7.00
2023-04-02T12:19:30.634Z,7.80
2023-04-02T12:22:25.541Z,5.80
2023-04-02T12:25:29.840Z,5.30
2023-04-02T12:28:22.443Z,7.60
2023-04-02T12:31:17.653Z,9.90
2023-04-02T12:34:17.446Z,7.30
2023-04-02T12:36:57.199Z,9.30
2023-04-02T12:39:55.460Z,8.80
2023-04-02T12:42:37.838Z,6.70
2023-04-02T12:45:27.251Z,7.40
2023-04-02T12:48:07.323Z,6.30
2023-04-02T12:51:00.231Z,6.60
2023-04-02T12:53:38.023Z,6.50
2023-04-02T12:56:19.677Z,8.20
2023-04-02T12:58:58.468Z,8.30
2023-04-02T13:01:33.891Z,7.20
2023-04-02T13:04:12.182Z,7.40
2023-04-02T13:07:04.418Z,8.30
2023-04-02T13:09:48.797Z,9.10
2023-04-02T13:12:34.852Z,16.10
2023-04-02T13:15:22.085Z,11.80
2023-04-02T13:18:23.500Z,21.70
2023-04-02T13:21:00.030Z,13.80
2023-04-02T13:23:41.376Z,12.30
2023-04-02T13:26:24.485Z,9.00
2023-04-02T13:29:01.582Z,11.50
2023-04-02T13:31:36.804Z,12.60
2023-04-02T13:34:29.348Z,11.10
2023-04-02T13:37:21.420Z,12.60
2023-04-02T13:39:53.567Z,11.00
2023-04-02T13:42:46.945Z,15.30
2023-04-02T13:45:27.787Z,15.60
2023-04-02T13:48:01.974Z,12.20
2023-04-02T13:50:42.997Z,10.00
2023-04-02T13:53:26.649Z,17.30
2023-04-02T13:56:19.451Z,8.70
2023-04-02T13:59:11.673Z,16.50
2023-04-02T14:02:07.564Z,16.50
2023-04-02T14:04:50.647Z,16.30
2023-04-02T14:07:56.710Z,13.50
2023-04-02T14:10:49.306Z,23.50
2023-04-02T14:13:41.408Z,16.50
2023-04-02T14:16:37.013Z,15.10
2023-04-02T14:19:34.921Z,13.90
2023-04-02T14:22:25.457Z,19.10
2023-04-02T14:25:07.687Z,20.00
2023-04-02T14:27:55.869Z,30.50
2023-04-02T14:30:56.734Z,12.90
2023-04-02T14:33:41.396Z,15.20
2023-04-02T14:39:26.186Z,7.90
2023-04-02T14:42:23.129Z,11.10
2023-04-02T14:45:07.321Z,9.80
2023-04-02T14:47:47.529Z,11.30
2023-04-02T14:50:29.471Z,10.60
2023-04-02T14:53:25.428Z,9.50
2023-04-02T14:56:09.299Z,12.20
2023-04-02T14:58:52.739Z,9.50
2023-04-02T15:01:33.628Z,8.50
2023-04-02T15:04:32.096Z,10.00
2023-04-02T15:07:28.518Z,7.10
2023-04-02T15:10:27.357Z,7.20
2023-04-02T15:13:22.508Z,5.10
2023-04-02T15:16:19.411Z,5.50
2023-04-02T15:18:56.263Z,6.50
2023-04-02T15:22:02.146Z,5.90
2023-04-02T15:24:48.784Z,5.60
2023-04-02T15:27:59.110Z,5.00
2023-04-02T15:30:43.215Z,4.60
2023-04-02T15:33:36.879Z,3.20
2023-04-02T15:36:26.682Z,5.00
2023-04-02T15:39:42.844Z,5.20
2023-04-02T15:42:22.846Z,5.50
2023-04-02T15:45:16.340Z,9.50
2023-04-02T15:48:02.060Z,8.50
2023-04-02T15:50:48.269Z,7.90
2023-04-02T15:53:34.518Z,7.00
2023-04-02T15:56:23.003Z,6.10
2023-04-02T15:59:09.252Z,7.30
2023-04-02T16:01:50.503Z,9.50
2023-04-02T16:04:33.262Z,15.20
2023-04-02T16:07:20.426Z,12.90
2023-04-02T16:09:58.892Z,7.60
2023-04-02T16:12:38.314Z,5.90
2023-04-02T16:15:23.558Z,7.30
2023-04-02T16:17:59.867Z,8.20
2023-04-02T16:20:36.190Z,6.50
2023-04-02T16:23:34.978Z,4.50
2023-04-02T16:26:19.308Z,8.70
2023-04-02T16:29:01.945Z,7.10
2023-04-02T16:32:03.380Z,8.80
2023-04-02T16:34:45.581Z,8.30
2023-04-02T16:37:29.923Z,8.60
2023-04-02T16:40:09.223Z,6.40
2023-04-02T16:43:16.435Z,8.00
2023-04-02T16:46:20.339Z,10.50
2023-04-02T16:49:26.739Z,9.40
2023-04-02T16:52:34.467Z,5.70
2023-04-02T16:55:25.745Z,9.00
2023-04-02T16:58:15.266Z,7.10
2023-04-02T17:01:16.296Z,7.10
2023-04-02T17:04:26.944Z,9.10
2023-04-02T17:07:28.941Z,9.80
2023-04-02T17:10:32.356Z,15.70
2023-04-02T17:13:32.543Z,9.00
2023-04-02T17:16:19.931Z,7.70
2023-04-02T17:19:14.425Z,9.10
2023-04-02T17:22:01.963Z,11.80
2023-04-02T17:24:41.617Z,8.10
2023-04-02T17:27:26.593Z,9.50
2023-04-02T17:33:14.590Z,6.50
2023-04-02T17:36:07.097Z,7.50
2023-04-02T17:38:52.194Z,7.40
2023-04-02T17:41:49.252Z,8.50
2023-04-02T17:44:53.912Z,5.70
2023-04-02T17:47:37.456Z,8.90
2023-04-02T17:50:39.255Z,7.70
2023-04-02T17:53:31.663Z,7.90
2023-04-02T17:56:19.865Z,6.80
2023-04-02T17:59:12.315Z,10.00
2023-04-02T18:02:03.851Z,10.30
2023-04-02T18:04:50.770Z,7.40
2023-04-02T18:07:32.743Z,6.80
2023-04-02T18:10:21.011Z,6.70
2023-04-02T18:13:08.157Z,7.60
2023-04-02T18:16:07.341Z,8.80
2023-04-02T18:19:05.965Z,8.80
2023-04-02T18:21:47.858Z,10.40
2023-04-02T18:24:33.920Z,7.30
2023-04-02T18:27:20.974Z,8.70
2023-04-02T18:30:14.517Z,9.00
2023-04-02T18:33:09.270Z,8.10
2023-04-02T18:35:51.396Z,8.30
2023-04-02T18:38:48.626Z,7.70
2023-04-02T18:41:44.228Z,7.40
2023-04-02T18:44:54.732Z,9.10
2023-04-02T18:47:34.156Z,9.20
2023-04-02T18:50:17.489Z,8.10
2023-04-02T18:52:52.892Z,8.90
2023-04-02T18:55:28.057Z,8.20
2023-04-02T18:58:05.048Z,10.10
2023-04-02T19:00:59.557Z,6.40
2023-04-02T19:03:37.727Z,8.60
2023-04-02T19:06:15.633Z,9.50
2023-04-02T19:09:15.183Z,8.30
2023-04-02T19:11:49.227Z,6.60
2023-04-02T19:14:32.242Z,7.60
2023-04-02T19:17:20.927Z,9.50
2023-04-02T19:20:04.789Z,9.00
2023-04-02T19:22:45.717Z,8.90
2023-04-02T19:25:37.827Z,7.00
2023-04-02T19:28:34.944Z,7.30
2023-04-02T19:31:29.249Z,7.20
2023-04-02T19:34:16.645Z,29.20
2023-04-02T19:37:16.738Z,9.40
2023-04-02T19:40:30.731Z,5.80
2023-04-02T19:43:23.348Z,7.10
2023-04-02T19:45:56.265Z,7.10
2023-04-02T19:48:42.442Z,6.90
2023-04-02T19:51:34.825Z,6.20
2023-04-02T19:54:27.228Z,6.70
2023-04-02T19:57:03.919Z,6.00
2023-04-02T19:59:37.402Z,5.30
2023-04-02T20:02:29.715Z,5.00
2023-04-02T20:05:08.331Z,6.70
2023-04-02T20:08:00.305Z,6.70
2023-04-02T20:10:52.440Z,4.90
2023-04-02T20:13:44.474Z,6.00
2023-04-02T20:16:38.603Z,5.00
2023-04-02T20:19:19.595Z,5.10
2023-04-02T20:22:11.682Z,5.00
2023-04-02T20:25:03.647Z,6.90
2023-04-02T20:27:38.267Z,6.10
2023-04-02T20:30:30.612Z,6.30
2023-04-02T20:33:05.618Z,7.40
2023-04-02T20:35:37.792Z,6.90
2023-04-02T20:38:30.947Z,5.10
2023-04-02T20:41:23.585Z,4.90
2023-04-02T20:44:15.837Z,4.30
2023-04-02T20:46:58.359Z,6.90
2023-04-02T20:49:51.213Z,4.90
2023-04-02T20:52:35.150Z,5.20
2023-04-02T20:55:11.953Z,4.10
2023-04-02T20:57:52.475Z,5.40
2023-04-02T21:00:40.659Z,5.60
2023-04-02T21:03:32.922Z,4.60
2023-04-02T21:06:26.264Z,6.90
2023-04-02T21:09:08.867Z,26.60
2023-04-02T21:12:01.223Z,4.20
2023-04-02T21:14:57.303Z,4.50
2023-04-02T21:17:35.293Z,4.30
2023-04-02T21:20:13.765Z,4.00
2023-04-02T21:23:05.941Z,3.30
2023-04-02T21:26:02.928Z,4.50
2023-04-02T21:28:55.617Z,5.30
2023-04-02T21:31:32.058Z,4.00
2023-04-02T21:34:24.200Z,3.70
2023-04-02T21:37:16.200Z,3.80
2023-04-02T21:40:10.463Z,5.10
2023-04-02T21:43:02.717Z,3.10
2023-04-02T21:45:35.049Z,3.60
2023-04-02T21:48:10.572Z,5.10
2023-04-02T21:50:42.483Z,3.80
2023-04-02T21:53:17.090Z,4.10
2023-04-02T21:55:49.286Z,4.30
2023-04-02T21:58:41.615Z,5.70
2023-04-02T22:01:36.392Z,24.00
2023-04-02T22:04:30.677Z,9.90
2023-04-02T22:07:11.272Z,4.30
2023-04-02T22:10:03.341Z,3.20
2023-04-02T22:12:44.423Z,4.40
2023-04-02T22:15:16.388Z,5.40
2023-04-02T22:17:53.525Z,5.10
2023-04-02T22:20:34.669Z,5.70
2023-04-02T22:23:28.865Z,3.10
2023-04-02T22:26:11.095Z,3.10
2023-04-02T22:29:03.921Z,2.70
2023-04-02T22:31:39.153Z,3.10
2023-04-02T22:34:11.210Z,4.10
2023-04-02T22:36:45.284Z,3.60
2023-04-02T22:39:24.708Z,3.60
2023-04-02T22:42:03.840Z,3.00
2023-04-02T22:44:38.622Z,4.30
2023-04-02T22:47:30.774Z,5.40
2023-04-02T22:50:22.824Z,4.30
2023-04-02T22:53:15.248Z,5.20
2023-04-02T22:56:09.252Z,5.10
2023-04-02T22:59:01.353Z,3.80
2023-04-02T23:01:53.487Z,5.50
2023-04-02T23:04:27.744Z,4.10
2023-04-02T23:07:19.989Z,3.70
2023-04-02T23:10:12.446Z,3.20
2023-04-02T23:13:04.398Z,2.90
2023-04-02T23:15:56.557Z,3.60
2023-04-02T23:18:34.879Z,4.20
2023-04-02T23:21:27.871Z,3.40
2023-04-02T23:24:02.508Z,4.10
2023-04-02T23:26:41.722Z,4.10
2023-04-02T23:29:33.686Z,4.70
2023-04-02T23:34:52.826Z,2.80
2023-04-02T23:37:35.092Z,3.30
2023-04-02T23:40:27.164Z,2.70
2023-04-02T23:43:19.241Z,3.00
2023-04-02T23:46:11.887Z,3.00
2023-04-02T23:48:46.748Z,2.70
2023-04-02T23:51:28.402Z,2.40
2023-04-02T23:54:03.336Z,2.80
2023-04-02T23:56:40.892Z,2.00
2023-04-02T23:59:32.846Z,2.60
